createdAt,value
2017-09-04T06:27:23.332Z,1563.75
2017-09-04T06:28:23.313Z,1665.00
2017-09-04T06:29:23.296Z,1743.75
2017-09-04T06:30:23.276Z,1923.75
2017-09-04T06:31:23.258Z,1636.88
2017-09-04T06:32:23.240Z,1901.25
2017-09-04T06:33:23.223Z,2165.63
2017-09-04T06:34:23.208Z,2300.63
2017-09-04T06:35:23.189Z,1698.75
2017-09-04T06:36:23.170Z,1653.75
2017-09-04T06:37:23.154Z,1704.38
2017-09-04T06:38:23.139Z,1631.25
2017-09-04T06:39:23.120Z,1704.38
2017-09-04T06:40:23.102Z,1946.25
2017-09-04T06:41:23.085Z,1856.25
2017-09-04T06:42:23.071Z,1968.75
2017-09-04T06:43:23.052Z,1923.75
2017-09-04T06:44:23.033Z,1968.75
2017-09-04T06:45:23.019Z,1923.75
2017-09-04T06:46:23.000Z,2160.00
2017-09-04T06:47:23.036Z,2542.50
2017-09-04T06:48:22.968Z,2025.00
2017-09-04T06:49:22.949Z,2019.38
2017-09-04T06:50:22.934Z,2047.50
2017-09-04T06:51:22.916Z,1935.00
2017-09-04T06:52:22.900Z,2064.38
2017-09-04T06:53:22.898Z,2092.50
2017-09-04T06:54:22.866Z,2475.00
2017-09-04T06:55:22.848Z,2328.75
2017-09-04T06:56:22.830Z,1940.63
2017-09-04T06:57:22.815Z,2238.75
2017-09-04T06:58:22.799Z,2058.75
2017-09-04T06:59:22.782Z,1901.25
2017-09-04T07:00:22.762Z,1395.00
2017-09-04T07:01:22.746Z,2300.63
2017-09-04T07:02:22.729Z,2598.75
2017-09-04T07:03:22.712Z,1968.75
2017-09-04T07:04:22.697Z,1423.13
2017-09-04T07:05:22.678Z,1282.50
2017-09-04T07:06:22.665Z,1265.63
2017-09-04T07:07:22.649Z,1237.50
2017-09-04T07:08:22.628Z,1012.50
2017-09-04T07:09:22.614Z,1378.13
2017-09-04T07:10:22.598Z,1957.50
2017-09-04T07:11:22.582Z,2221.88
2017-09-04T07:12:22.565Z,1884.38
2017-09-04T07:13:22.546Z,1698.75
2017-09-04T07:14:22.579Z,1670.63
2017-09-04T07:15:22.515Z,1710.00
2017-09-04T07:16:22.496Z,1681.88
2017-09-04T07:17:22.482Z,1625.63
2017-09-04T07:18:22.466Z,1563.75
2017-09-04T07:19:22.449Z,1518.75
2017-09-04T07:20:22.431Z,1546.88
2017-09-04T07:21:22.412Z,1569.38
2017-09-04T07:22:22.396Z,1783.13
2017-09-04T07:23:22.382Z,1794.38
2017-09-04T07:24:22.363Z,1642.50
2017-09-04T07:25:22.349Z,1636.88
2017-09-04T07:26:22.378Z,1597.50
2017-09-04T07:27:22.316Z,1569.38
2017-09-04T07:28:22.297Z,1721.25
2017-09-04T07:29:22.283Z,1951.88
2017-09-04T07:30:22.267Z,2778.75
2017-09-04T07:31:22.253Z,2694.38
2017-09-04T07:32:22.230Z,1738.13
2017-09-04T07:33:22.214Z,1496.25
2017-09-04T07:34:22.197Z,1456.88
2017-09-04T07:35:22.183Z,1546.88
2017-09-04T07:36:22.171Z,1507.50
2017-09-04T07:37:22.149Z,1473.75
2017-09-04T07:38:22.131Z,1462.50
2017-09-04T07:39:22.118Z,2030.63
2017-09-04T07:40:22.098Z,2430.00
2017-09-04T07:41:22.084Z,2250.00
2017-09-04T07:42:22.068Z,1681.88
2017-09-04T07:43:22.049Z,1732.50
2017-09-04T07:44:22.033Z,1985.63
2017-09-04T07:45:22.018Z,1985.63
2017-09-04T07:46:22.001Z,1957.50
2017-09-04T07:47:21.985Z,1991.25
2017-09-04T07:48:21.966Z,2081.25
2017-09-04T07:49:21.948Z,1968.75
2017-09-04T07:50:21.933Z,2176.88
2017-09-04T07:51:21.917Z,2216.25
2017-09-04T07:52:21.902Z,2396.25
2017-09-04T07:53:21.884Z,2368.13
2017-09-04T07:54:21.869Z,2221.88
2017-09-04T07:55:21.852Z,2452.50
2017-09-04T07:56:21.838Z,2480.63
2017-09-04T07:57:21.822Z,2396.25
2017-09-04T07:58:21.807Z,2351.25
2017-09-04T07:59:21.790Z,2407.50
2017-09-04T08:00:21.773Z,2306.25
2017-09-04T08:01:21.760Z,2199.38
2017-09-04T08:02:21.743Z,2216.25
2017-09-04T08:03:21.730Z,2143.13
2017-09-04T08:04:21.714Z,2210.63
2017-09-04T08:05:21.698Z,2340.00
2017-09-04T08:06:21.682Z,2171.25
2017-09-04T08:07:21.668Z,2221.88
2017-09-04T08:08:21.651Z,2283.75
2017-09-04T08:09:21.634Z,2441.25
2017-09-04T08:10:21.623Z,2480.63
2017-09-04T08:11:21.605Z,2356.88
2017-09-04T08:12:21.588Z,2278.13
2017-09-04T08:13:21.573Z,2328.75
2017-09-04T08:14:21.557Z,2081.25
2017-09-04T08:15:21.539Z,2109.38
2017-09-04T08:16:21.525Z,2070.00
2017-09-04T08:17:21.510Z,2446.88
2017-09-04T08:18:21.492Z,2463.75
2017-09-04T08:19:21.479Z,2379.38
2017-09-04T08:20:21.463Z,2565.00
2017-09-04T08:21:21.445Z,2694.38
2017-09-04T08:22:21.432Z,2795.63
2017-09-04T08:23:21.417Z,2891.25
2017-09-04T08:24:21.398Z,2885.63
2017-09-04T08:25:21.382Z,2638.13
2017-09-04T08:26:21.370Z,2559.38
2017-09-04T08:27:21.353Z,2441.25
2017-09-04T08:28:21.339Z,2683.13
2017-09-04T08:29:21.322Z,2525.63
2017-09-04T08:30:21.308Z,1704.38
2017-09-04T08:31:21.294Z,1074.38
2017-09-04T08:32:21.278Z,984.38
2017-09-04T08:33:21.265Z,2255.63
2017-09-04T08:34:21.249Z,2683.13
2017-09-04T08:35:21.235Z,2857.50
2017-09-04T08:36:21.218Z,2756.25
2017-09-04T08:37:21.207Z,2891.25
2017-09-04T08:38:21.190Z,2677.50
2017-09-04T08:39:21.177Z,2857.50
2017-09-04T08:40:21.162Z,3178.13
2017-09-04T08:41:21.150Z,3380.63
2017-09-04T08:42:21.131Z,3110.63
2017-09-04T08:43:21.118Z,2795.63
2017-09-04T08:44:21.103Z,2671.88
2017-09-04T08:45:21.088Z,2930.63
2017-09-04T08:46:21.070Z,2818.13
2017-09-04T08:47:21.057Z,2739.38
2017-09-04T08:48:21.042Z,2317.50
2017-09-04T08:49:21.026Z,2559.38
2017-09-04T08:50:21.011Z,2784.38
2017-09-04T08:51:20.997Z,2891.25
2017-09-04T08:52:20.981Z,3200.63
2017-09-04T08:53:20.970Z,3358.13
2017-09-04T08:54:20.953Z,3690.00
2017-09-04T08:55:20.942Z,3690.00
2017-09-04T08:56:20.926Z,3116.25
2017-09-04T08:57:20.913Z,2497.50
2017-09-04T08:58:20.899Z,2221.88
2017-09-04T08:59:20.883Z,2250.00
2017-09-04T09:00:20.866Z,2193.75
2017-09-04T09:01:20.857Z,2857.50
2017-09-04T09:02:20.844Z,3746.25
2017-09-04T09:03:20.824Z,3577.50
2017-09-04T09:04:20.810Z,3138.75
2017-09-04T09:05:20.797Z,2857.50
2017-09-04T09:06:20.782Z,2002.50
2017-09-04T09:07:20.771Z,2761.88
2017-09-04T09:08:20.758Z,2891.25
2017-09-04T09:09:20.742Z,2981.25
2017-09-04T09:10:20.738Z,2925.00
2017-09-04T09:11:20.719Z,3138.75
2017-09-04T09:12:20.708Z,3026.25
2017-09-04T09:13:20.690Z,3583.13
2017-09-04T09:14:20.677Z,2795.63
2017-09-04T09:15:20.665Z,3133.13
2017-09-04T09:16:20.651Z,2823.75
2017-09-04T09:17:20.639Z,3268.13
2017-09-04T09:18:20.626Z,3009.38
2017-09-04T09:19:20.612Z,3684.38
2017-09-04T09:20:20.600Z,3796.88
2017-09-04T09:21:20.585Z,3583.13
2017-09-04T09:22:20.573Z,3375.00
2017-09-04T09:23:20.561Z,3262.50
2017-09-04T09:24:20.553Z,3172.50
2017-09-04T09:25:20.535Z,2863.13
2017-09-04T09:26:20.525Z,3228.75
2017-09-04T09:27:20.513Z,3285.00
2017-09-04T09:28:20.502Z,2739.38
2017-09-04T09:29:20.488Z,3099.38
2017-09-04T09:30:20.476Z,3223.13
2017-09-04T09:31:20.466Z,3245.63
2017-09-04T09:32:20.452Z,3538.13
2017-09-04T09:33:20.439Z,3105.00
2017-09-04T09:34:20.429Z,3150.00
2017-09-04T09:35:20.418Z,2986.88
2017-09-04T09:36:20.403Z,2975.63
2017-09-04T09:37:20.396Z,2964.38
2017-09-04T09:38:20.384Z,3285.00
2017-09-04T09:39:20.368Z,3493.13
2017-09-04T09:40:20.359Z,3493.13
2017-09-04T09:41:20.349Z,3796.88
2017-09-04T09:42:20.335Z,3690.00
2017-09-04T09:43:20.326Z,1951.88
2017-09-04T09:44:20.312Z,3330.00
2017-09-04T09:45:20.301Z,2812.50
2017-09-04T09:46:20.288Z,2379.38
2017-09-04T09:47:20.275Z,2941.88
2017-09-04T09:48:20.265Z,2992.50
2017-09-04T09:49:20.250Z,3256.88
2017-09-04T09:50:20.238Z,3481.88
2017-09-04T09:51:20.229Z,3256.88
2017-09-04T09:52:20.213Z,3110.63
2017-09-04T09:53:20.201Z,3228.75
2017-09-04T09:54:20.189Z,3031.88
2017-09-04T09:55:20.176Z,2767.50
2017-09-04T09:56:20.166Z,2536.88
2017-09-04T09:57:20.151Z,2289.38
2017-09-04T09:58:20.138Z,2311.88
2017-09-04T09:59:20.128Z,2655.00
2017-09-04T10:00:20.114Z,2576.25
2017-09-04T10:01:20.103Z,2508.75
2017-09-04T10:02:20.090Z,3003.75
2017-09-04T10:03:20.081Z,2947.50
2017-09-04T10:04:20.065Z,2823.75
2017-09-04T10:05:20.054Z,2930.63
2017-09-04T10:06:20.046Z,3138.75
2017-09-04T10:07:20.033Z,3172.50
2017-09-04T10:08:20.018Z,3532.50
2017-09-04T10:09:20.008Z,3712.50
2017-09-04T10:10:19.998Z,3515.63
2017-09-04T10:11:19.983Z,3577.50
2017-09-04T10:12:19.973Z,3729.38
2017-09-04T10:13:19.954Z,3954.38
2017-09-04T10:14:19.948Z,4083.75
2017-09-04T10:15:19.933Z,3847.50
2017-09-04T10:16:19.919Z,3532.50
2017-09-04T10:17:19.907Z,3515.63
2017-09-04T10:18:19.894Z,3583.13
2017-09-04T10:19:19.885Z,3746.25
2017-09-04T10:20:19.872Z,3898.13
2017-09-04T10:21:19.857Z,3920.63
2017-09-04T10:22:19.844Z,3757.50
2017-09-04T10:23:19.830Z,3538.13
2017-09-04T10:24:19.815Z,3639.38
2017-09-04T10:25:19.805Z,3650.63
2017-09-04T10:26:19.790Z,3622.50
2017-09-04T10:27:19.776Z,4179.38
2017-09-04T10:28:19.764Z,3150.00
2017-09-04T10:29:19.750Z,4398.75
2017-09-04T10:30:19.741Z,2120.63
2017-09-04T10:31:19.724Z,1766.25
2017-09-04T10:32:19.712Z,2221.88
2017-09-04T10:33:19.698Z,1861.88
2017-09-04T10:34:19.686Z,1608.75
2017-09-04T10:35:19.673Z,3960.00
2017-09-04T10:36:19.656Z,3903.75
2017-09-04T10:37:19.642Z,4252.50
2017-09-04T10:38:19.630Z,4404.38
2017-09-04T10:39:19.640Z,2716.88
2017-09-04T10:40:19.601Z,3673.13
2017-09-04T10:41:19.588Z,3313.13
2017-09-04T10:42:19.577Z,1777.50
2017-09-04T10:43:19.564Z,4415.63
2017-09-04T10:44:19.547Z,4460.63
2017-09-04T10:45:19.534Z,4156.88
2017-09-04T10:46:19.524Z,3960.00
2017-09-04T10:47:19.511Z,4072.50
2017-09-04T10:48:19.495Z,4179.38
2017-09-04T10:49:19.491Z,4314.38
2017-09-04T10:50:19.471Z,4325.63
2017-09-04T10:51:19.460Z,4196.25
2017-09-04T10:52:19.452Z,4134.38
2017-09-04T10:53:19.437Z,3313.13
2017-09-04T10:54:19.423Z,4213.13
2017-09-04T10:55:19.413Z,4111.88
2017-09-04T10:56:19.398Z,4055.63
2017-09-04T10:57:19.391Z,4162.50
2017-09-04T10:58:19.375Z,4224.38
2017-09-04T10:59:19.365Z,4286.25
2017-09-04T11:00:19.351Z,4308.75
2017-09-04T11:01:19.339Z,4207.50
2017-09-04T11:02:19.328Z,4336.88
2017-09-04T11:03:19.319Z,5276.25
2017-09-04T11:04:19.306Z,3543.75
2017-09-04T11:05:19.295Z,6030.00
2017-09-04T11:06:19.283Z,2368.13
2017-09-04T11:07:19.272Z,2053.13
2017-09-04T11:08:19.265Z,4854.38
2017-09-04T11:09:19.245Z,5208.75
2017-09-04T11:10:19.235Z,4488.75
2017-09-04T11:11:19.222Z,5793.75
2017-09-04T11:12:19.210Z,5315.63
2017-09-04T11:13:19.198Z,3346.88
2017-09-04T11:14:19.187Z,3678.75
2017-09-04T11:15:19.178Z,2160.00
2017-09-04T11:16:19.163Z,2323.13
2017-09-04T11:17:19.149Z,2334.38
2017-09-04T11:18:19.138Z,2700.00
2017-09-04T11:19:19.126Z,3065.63
2017-09-04T11:20:19.112Z,2508.75
2017-09-04T11:21:19.101Z,2829.38
2017-09-04T11:22:19.088Z,6097.50
2017-09-04T11:23:19.076Z,5366.25
2017-09-04T11:24:19.060Z,3588.75
2017-09-04T11:25:19.048Z,2936.25
2017-09-04T11:26:19.036Z,5782.50
2017-09-04T11:27:19.024Z,5551.88
2017-09-04T11:28:19.011Z,2559.38
2017-09-04T11:29:18.999Z,5242.50
2017-09-04T11:30:18.989Z,5298.75
2017-09-04T11:31:18.978Z,5293.13
2017-09-04T11:32:18.965Z,4753.13
2017-09-04T11:33:18.951Z,4764.38
2017-09-04T11:34:18.939Z,6412.50
2017-09-04T11:35:18.928Z,1726.88
2017-09-04T11:36:18.915Z,4455.00
2017-09-04T11:37:18.914Z,4365.00
2017-09-04T11:38:18.892Z,5315.63
2017-09-04T11:39:18.885Z,5551.88
2017-09-04T11:40:18.877Z,2385.00
2017-09-04T11:41:18.863Z,2306.25
2017-09-04T11:42:18.858Z,2610.00
2017-09-04T11:43:18.847Z,3588.75
2017-09-04T11:44:18.833Z,2458.13
2017-09-04T11:45:18.820Z,3088.13
2017-09-04T11:46:18.795Z,3498.75
2017-09-04T11:47:18.812Z,4606.88
2017-09-04T11:48:18.771Z,4297.50
2017-09-04T11:49:18.757Z,3144.38
2017-09-04T11:50:18.743Z,2868.75
2017-09-04T11:51:18.732Z,2761.88
2017-09-04T11:52:18.715Z,2857.50
2017-09-04T11:53:18.703Z,2970.00
2017-09-04T11:54:18.692Z,2233.13
2017-09-04T11:55:18.676Z,1980.00
2017-09-04T11:56:18.666Z,2030.63
2017-09-04T11:57:18.648Z,2356.88
2017-09-04T11:58:18.635Z,2491.88
2017-09-04T11:59:18.622Z,2610.00
2017-09-04T12:00:18.607Z,2458.13
2017-09-04T12:01:18.597Z,2221.88
2017-09-04T12:02:18.582Z,3088.13
2017-09-04T12:03:18.573Z,2958.75
2017-09-04T12:04:18.558Z,3453.75
2017-09-04T12:05:18.542Z,4629.38
2017-09-04T12:06:18.533Z,4741.88
2017-09-04T12:07:18.517Z,5062.50
2017-09-04T12:08:18.515Z,3521.25
2017-09-04T12:09:18.492Z,5113.13
2017-09-04T12:10:18.480Z,4044.38
2017-09-04T12:11:18.471Z,4950.00
2017-09-04T12:12:18.455Z,4038.75
2017-09-04T12:13:18.444Z,3920.63
2017-09-04T12:14:18.430Z,2885.63
2017-09-04T12:15:18.417Z,2593.13
2017-09-04T12:16:18.407Z,2334.38
2017-09-04T12:17:18.392Z,2531.25
2017-09-04T12:18:18.382Z,1850.63
2017-09-04T12:19:18.373Z,2019.38
2017-09-04T12:20:18.353Z,2553.75
2017-09-04T12:21:18.343Z,3436.88
2017-09-04T12:22:18.327Z,3262.50
2017-09-04T12:23:18.316Z,3093.75
2017-09-04T12:24:18.299Z,5473.13
2017-09-04T12:25:18.287Z,2812.50
2017-09-04T12:26:18.273Z,2857.50
2017-09-04T12:27:18.262Z,3695.63
2017-09-04T12:28:18.245Z,3380.63
2017-09-04T12:29:18.232Z,3346.88
2017-09-04T12:30:18.218Z,3335.63
2017-09-04T12:31:18.207Z,3234.38
2017-09-04T12:32:18.193Z,2542.50
2017-09-04T12:33:18.177Z,2486.25
2017-09-04T12:34:18.165Z,3088.13
2017-09-04T12:35:18.154Z,4899.38
2017-09-04T12:36:18.136Z,4066.88
2017-09-04T12:37:18.123Z,3993.75
2017-09-04T12:38:18.113Z,5265.00
2017-09-04T12:39:18.099Z,2728.13
2017-09-04T12:40:18.085Z,2902.50
2017-09-04T12:41:18.078Z,2638.13
2017-09-04T12:42:18.059Z,2570.63
2017-09-04T12:43:18.046Z,2750.63
2017-09-04T12:44:18.029Z,4578.75
2017-09-04T12:45:18.019Z,5203.13
2017-09-04T12:46:18.003Z,5118.75
2017-09-04T12:47:17.993Z,3189.38
2017-09-04T12:48:17.976Z,4061.25
2017-09-04T12:49:17.966Z,5737.50
2017-09-04T12:50:17.952Z,5433.75
2017-09-04T12:51:17.939Z,3661.88
2017-09-04T12:52:17.923Z,4128.75
2017-09-04T12:53:17.910Z,3571.88
2017-09-04T12:54:17.899Z,3453.75
2017-09-04T12:55:17.884Z,2773.13
2017-09-04T12:56:17.870Z,2626.88
2017-09-04T12:57:17.860Z,2486.25
2017-09-04T12:58:17.852Z,2891.25
2017-09-04T12:59:17.837Z,2610.00
2017-09-04T13:00:17.832Z,2221.88
2017-09-04T13:01:17.823Z,2469.38
2017-09-04T13:02:17.817Z,3408.75
2017-09-04T13:03:17.774Z,3082.50
2017-09-04T13:04:17.760Z,2874.38
2017-09-04T13:05:17.749Z,3870.00
2017-09-04T13:06:17.733Z,3150.00
2017-09-04T13:07:17.719Z,2435.63
2017-09-04T13:08:17.709Z,2266.88
2017-09-04T13:09:17.694Z,2373.75
2017-09-04T13:10:17.680Z,2964.38
2017-09-04T13:11:17.666Z,2638.13
2017-09-04T13:12:17.650Z,2306.25
2017-09-04T13:13:17.639Z,2925.00
2017-09-04T13:14:17.630Z,2896.88
2017-09-04T13:15:17.611Z,2503.13
2017-09-04T13:16:17.597Z,2250.00
2017-09-04T13:17:17.582Z,2272.50
2017-09-04T13:18:17.569Z,2795.63
2017-09-04T13:19:17.554Z,3105.00
2017-09-04T13:20:17.536Z,2407.50
2017-09-04T13:21:17.522Z,2053.13
2017-09-04T13:22:17.510Z,2677.50
2017-09-04T13:23:17.494Z,3088.13
2017-09-04T13:24:17.477Z,2868.75
2017-09-04T13:25:17.464Z,2604.38
2017-09-04T13:26:17.448Z,2958.75
2017-09-04T13:27:17.437Z,2700.00
2017-09-04T13:28:17.418Z,2767.50
2017-09-04T13:29:17.405Z,3189.38
2017-09-04T13:30:17.390Z,3639.38
2017-09-04T13:31:17.372Z,3144.38
2017-09-04T13:32:17.359Z,2874.38
2017-09-04T13:33:17.344Z,3380.63
2017-09-04T13:34:17.330Z,2643.75
2017-09-04T13:35:17.315Z,3285.00
2017-09-04T13:36:17.299Z,2289.38
2017-09-04T13:37:17.285Z,2463.75
2017-09-04T13:38:17.269Z,1951.88
2017-09-04T13:39:17.253Z,2002.50
2017-09-04T13:40:17.239Z,2002.50
2017-09-04T13:41:17.223Z,1794.38
2017-09-04T13:42:17.208Z,1586.25
2017-09-04T13:43:17.201Z,1490.63
2017-09-04T13:44:17.180Z,1456.88
2017-09-04T13:45:17.164Z,1794.38
2017-09-04T13:46:17.148Z,2446.88
2017-09-04T13:47:17.135Z,3037.50
2017-09-04T13:48:17.117Z,2581.88
2017-09-04T13:49:17.102Z,3211.88
2017-09-04T13:50:17.092Z,3161.25
2017-09-04T13:51:17.073Z,2503.13
2017-09-04T13:52:17.057Z,2368.13
2017-09-04T13:53:17.043Z,2295.00
2017-09-04T13:54:17.036Z,1968.75
2017-09-04T13:55:17.017Z,1890.00
2017-09-04T13:56:17.001Z,1957.50
2017-09-04T13:57:16.985Z,3144.38
2017-09-04T13:58:16.973Z,2311.88
2017-09-04T13:59:16.957Z,2700.00
2017-09-04T14:00:16.942Z,3127.50
2017-09-04T14:01:16.925Z,2199.38
2017-09-04T14:02:16.910Z,2666.25
2017-09-04T14:03:16.896Z,2306.25
2017-09-04T14:04:16.882Z,2413.13
2017-09-04T14:05:16.867Z,1935.00
2017-09-04T14:06:16.851Z,2053.13
2017-09-04T14:07:16.837Z,2041.88
2017-09-04T14:08:16.817Z,1968.75
2017-09-04T14:09:16.805Z,1906.88
2017-09-04T14:10:16.790Z,2205.00
2017-09-04T14:11:16.775Z,2486.25
2017-09-04T14:12:16.759Z,1985.63
2017-09-04T14:13:16.741Z,2154.38
2017-09-04T14:14:16.726Z,2463.75
2017-09-04T14:15:16.711Z,3420.00
2017-09-04T14:16:16.695Z,2812.50
2017-09-04T14:17:16.679Z,2131.88
2017-09-04T14:18:16.664Z,1929.38
2017-09-04T14:19:16.648Z,1693.13
2017-09-04T14:20:16.632Z,1586.25
2017-09-04T14:21:16.619Z,1513.13
2017-09-04T14:22:16.607Z,1715.63
2017-09-04T14:23:16.587Z,1558.13
2017-09-04T14:24:16.574Z,1479.38
2017-09-04T14:25:16.557Z,1411.88
2017-09-04T14:26:16.542Z,1575.00
2017-09-04T14:27:16.527Z,1344.38
2017-09-04T14:28:16.509Z,1456.88
2017-09-04T14:29:16.494Z,1473.75
2017-09-04T14:30:16.479Z,1417.50
2017-09-04T14:31:16.465Z,1378.13
2017-09-04T14:32:16.446Z,1288.13
2017-09-04T14:33:16.431Z,1333.13
2017-09-04T14:34:16.418Z,1563.75
2017-09-04T14:35:16.402Z,1546.88
2017-09-04T14:36:16.382Z,1428.75
2017-09-04T14:37:16.367Z,1271.25
2017-09-04T14:38:16.352Z,1158.75
2017-09-04T14:39:16.335Z,1046.25
2017-09-04T14:40:16.321Z,900.00
2017-09-04T14:41:16.302Z,832.50
2017-09-04T14:42:16.289Z,877.50
2017-09-04T14:43:16.270Z,911.25
2017-09-04T14:44:16.253Z,950.63
2017-09-04T14:45:16.238Z,961.88
2017-09-04T14:46:16.222Z,995.63
2017-09-04T14:47:16.209Z,894.38
2017-09-04T14:48:16.189Z,866.25
2017-09-04T14:49:16.176Z,838.13
2017-09-04T14:50:16.163Z,793.13
2017-09-04T14:51:16.141Z,776.25
2017-09-04T14:52:16.125Z,725.63
2017-09-04T14:53:16.110Z,680.63
2017-09-04T14:54:16.092Z,663.75
2017-09-04T14:55:16.079Z,686.25
2017-09-04T14:56:16.059Z,663.75
2017-09-04T14:57:16.047Z,652.50
2017-09-04T14:58:16.030Z,691.88
2017-09-04T14:59:16.014Z,866.25
2017-09-04T15:00:15.997Z,753.75
2017-09-04T15:01:15.980Z,776.25
2017-09-04T15:02:15.963Z,810.00
2017-09-04T15:03:15.946Z,810.00
2017-09-04T15:04:15.932Z,843.75
2017-09-04T15:05:15.913Z,725.63
2017-09-04T15:06:15.901Z,720.00
2017-09-04T15:07:15.881Z,624.38
2017-09-04T15:08:15.864Z,596.25
2017-09-04T15:09:15.848Z,500.63
2017-09-04T15:10:15.834Z,433.13
2017-09-04T15:11:15.819Z,466.88
2017-09-04T15:12:15.801Z,596.25
2017-09-04T15:13:15.785Z,601.88
2017-09-04T15:14:15.770Z,556.88
2017-09-04T15:15:15.752Z,646.88
2017-09-04T15:16:15.737Z,641.25
2017-09-04T15:17:15.718Z,680.63
2017-09-04T15:18:15.704Z,770.63
2017-09-04T15:19:15.687Z,776.25
2017-09-04T15:20:15.669Z,675.00
2017-09-04T15:21:15.655Z,725.63
2017-09-04T15:22:15.637Z,669.38
2017-09-04T15:23:15.623Z,646.88
2017-09-04T15:24:15.610Z,646.88
2017-09-04T15:25:15.589Z,635.63
2017-09-04T15:26:15.573Z,635.63
2017-09-04T15:27:15.557Z,658.13
2017-09-04T15:28:15.542Z,540.00
2017-09-04T15:29:15.522Z,556.88
2017-09-04T15:30:15.506Z,551.25
2017-09-04T15:31:15.493Z,562.50
2017-09-04T15:32:15.476Z,545.63
2017-09-04T15:33:15.457Z,472.50
2017-09-04T15:34:15.443Z,433.13
2017-09-04T15:35:15.427Z,416.25
2017-09-04T15:36:15.410Z,365.63
2017-09-04T15:37:15.392Z,326.25
2017-09-04T15:38:15.378Z,315.00
2017-09-04T15:39:15.358Z,354.38
2017-09-04T15:40:15.342Z,410.63
2017-09-04T15:41:15.325Z,399.38
2017-09-04T15:42:15.311Z,461.25
2017-09-04T15:43:15.291Z,416.25
2017-09-04T15:44:15.274Z,382.50
2017-09-04T15:45:15.260Z,399.38
2017-09-04T15:46:15.242Z,405.00
2017-09-04T15:47:15.229Z,410.63
2017-09-04T15:48:15.210Z,405.00
2017-09-04T15:49:15.195Z,421.88
2017-09-04T15:50:15.175Z,410.63
2017-09-04T15:51:15.162Z,416.25
2017-09-04T15:52:15.144Z,444.38
2017-09-04T15:53:15.126Z,433.13
2017-09-04T15:54:15.109Z,483.75
2017-09-04T15:55:15.091Z,495.00
2017-09-04T15:56:15.077Z,455.63
2017-09-04T15:57:15.061Z,455.63
2017-09-04T15:58:15.048Z,466.88
2017-09-04T15:59:15.027Z,489.38
2017-09-04T16:00:15.007Z,528.75
2017-09-04T16:01:14.991Z,551.25
2017-09-04T16:02:14.976Z,517.50
2017-09-04T16:03:14.964Z,489.38
2017-09-04T16:04:14.940Z,461.25
2017-09-04T16:05:14.923Z,528.75
2017-09-04T16:06:14.907Z,495.00
2017-09-04T16:07:14.890Z,461.25
2017-09-04T16:08:14.872Z,461.25
2017-09-04T16:09:14.859Z,478.13
2017-09-04T16:10:14.840Z,478.13
2017-09-04T16:11:14.825Z,472.50
2017-09-04T16:12:14.807Z,483.75
2017-09-04T16:13:14.788Z,478.13
2017-09-04T16:14:14.775Z,483.75
2017-09-04T16:15:14.755Z,455.63
2017-09-04T16:16:14.739Z,427.50
2017-09-04T16:17:14.723Z,489.38
2017-09-04T16:18:14.707Z,534.38
2017-09-04T16:19:14.690Z,455.63
2017-09-04T16:20:14.670Z,416.25
2017-09-04T16:21:14.655Z,399.38
2017-09-04T16:22:14.639Z,382.50
2017-09-04T16:23:14.621Z,371.25
2017-09-04T16:24:14.602Z,365.63
2017-09-04T16:25:14.588Z,376.88
2017-09-04T16:26:14.571Z,376.88
2017-09-04T16:27:14.554Z,399.38
2017-09-04T16:28:14.538Z,444.38
2017-09-04T16:29:14.519Z,466.88
2017-09-04T16:30:14.507Z,410.63
2017-09-04T16:31:14.488Z,382.50
2017-09-04T16:32:14.472Z,382.50
2017-09-04T16:33:14.454Z,371.25
2017-09-04T16:34:14.437Z,376.88
2017-09-04T16:35:14.423Z,410.63
2017-09-04T16:36:14.406Z,421.88
2017-09-04T16:37:14.389Z,438.75
2017-09-04T16:38:14.371Z,438.75
2017-09-04T16:39:14.358Z,421.88
2017-09-04T16:40:14.337Z,399.38
2017-09-04T16:41:14.324Z,371.25
2017-09-04T16:42:14.307Z,382.50
2017-09-04T16:43:14.290Z,371.25
2017-09-04T16:44:14.271Z,388.13
2017-09-04T16:45:14.254Z,371.25
2017-09-04T16:46:14.237Z,354.38
2017-09-04T16:47:14.221Z,354.38
2017-09-04T16:48:14.205Z,337.50
2017-09-04T16:49:14.185Z,320.63
2017-09-04T16:50:14.169Z,315.00
2017-09-04T16:51:14.155Z,337.50
2017-09-04T16:52:14.136Z,320.63
2017-09-04T16:53:14.119Z,292.50
2017-09-04T16:54:14.139Z,281.25
2017-09-04T16:55:14.094Z,286.88
2017-09-04T16:56:14.070Z,275.63
2017-09-04T16:57:14.053Z,264.38
2017-09-04T16:58:14.034Z,247.50
2017-09-04T16:59:14.017Z,236.25
2017-09-04T17:00:14.000Z,230.63
2017-09-04T17:01:13.983Z,219.38
2017-09-04T17:02:13.968Z,208.13
2017-09-04T17:03:13.949Z,202.50
2017-09-04T17:04:13.931Z,191.25
2017-09-04T17:05:13.924Z,185.63
2017-09-04T17:06:13.900Z,180.00
2017-09-04T17:07:13.881Z,174.38
2017-09-04T17:08:13.864Z,174.38
2017-09-04T17:09:13.847Z,174.38
2017-09-04T17:10:13.830Z,157.50
2017-09-04T17:11:13.818Z,151.88
2017-09-04T17:12:13.802Z,140.63
2017-09-04T17:13:13.781Z,129.38
2017-09-04T17:14:13.762Z,129.38
2017-09-04T17:15:13.746Z,123.75
2017-09-04T17:16:13.728Z,118.13
2017-09-04T17:17:13.713Z,118.13
2017-09-04T17:18:13.701Z,112.50
2017-09-04T17:19:13.679Z,112.50
2017-09-04T17:20:13.661Z,106.88
2017-09-04T17:21:13.643Z,95.63
2017-09-04T17:22:13.628Z,95.63
2017-09-04T17:23:13.611Z,90.00
2017-09-04T17:24:13.594Z,90.00
2017-09-04T17:25:13.581Z,84.38
2017-09-04T17:26:13.585Z,84.38
2017-09-04T17:27:13.544Z,84.38
2017-09-04T17:28:13.523Z,78.75
2017-09-04T17:29:13.509Z,73.13
2017-09-04T17:30:13.490Z,67.50
2017-09-04T17:31:13.472Z,67.50
2017-09-04T17:32:13.458Z,61.88
2017-09-04T17:33:13.442Z,61.88
2017-09-04T17:34:13.424Z,56.25
2017-09-04T17:35:13.406Z,56.25
2017-09-04T17:36:13.391Z,50.63
2017-09-04T17:37:13.369Z,50.63
2017-09-04T17:38:13.356Z,45.00
2017-09-04T17:39:13.345Z,45.00
2017-09-04T17:40:13.321Z,39.38
2017-09-04T17:41:13.301Z,39.38
2017-09-04T17:42:13.287Z,33.75
2017-09-04T17:43:13.269Z,33.75
2017-09-04T17:44:13.252Z,33.75
2017-09-04T17:45:13.235Z,28.13
2017-09-04T17:46:13.219Z,28.13
2017-09-04T17:47:13.201Z,22.50
2017-09-04T17:48:13.212Z,22.50
2017-09-04T17:49:13.163Z,22.50
2017-09-04T17:50:13.148Z,16.88
2017-09-04T17:51:13.132Z,16.88
2017-09-04T17:52:13.114Z,16.88
2017-09-04T17:53:13.097Z,11.25
2017-09-04T17:54:13.080Z,11.25
2017-09-04T17:55:13.062Z,11.25
2017-09-04T17:56:13.042Z,11.25
2017-09-04T17:57:13.028Z,5.63
2017-09-04T17:58:13.009Z,5.63
2017-09-04T17:59:12.993Z,5.63
2017-09-04T18:00:12.977Z,5.63
2017-09-04T18:01:12.955Z,5.63
2017-09-04T18:02:12.939Z,0.00
2017-09-04T18:03:12.925Z,0.00
2017-09-04T18:04:12.904Z,0.00
2017-09-04T18:05:12.889Z,0.00
2017-09-04T18:06:12.871Z,0.00
2017-09-04T18:07:12.859Z,0.00
2017-09-04T18:08:12.838Z,0.00
2017-09-04T18:09:12.818Z,0.00
2017-09-04T18:10:12.800Z,0.00
2017-09-04T18:11:12.783Z,0.00
2017-09-04T18:12:12.763Z,0.00
2017-09-04T18:13:12.755Z,0.00
2017-09-04T18:14:12.732Z,0.00
2017-09-04T18:15:12.715Z,0.00
2017-09-04T18:16:12.697Z,0.00
2017-09-04T18:17:12.677Z,0.00
2017-09-04T18:18:12.660Z,0.00
2017-09-04T18:19:12.643Z,0.00
2017-09-04T18:20:12.628Z,0.00
2017-09-04T18:21:12.607Z,0.00
2017-09-04T18:22:12.592Z,0.00
2017-09-04T18:23:12.571Z,0.00
2017-09-04T18:24:12.560Z,0.00
2017-09-04T18:25:12.536Z,0.00
2017-09-04T18:26:12.517Z,0.00
2017-09-04T18:27:12.504Z,0.00
2017-09-04T18:28:12.482Z,0.00
2017-09-04T18:29:12.466Z,0.00
2017-09-04T18:30:12.449Z,0.00
2017-09-04T18:31:12.432Z,0.00
2017-09-04T18:32:12.413Z,0.00
2017-09-04T18:33:12.397Z,0.00
2017-09-04T18:34:12.378Z,0.00
2017-09-04T18:35:12.360Z,0.00
2017-09-04T18:36:12.343Z,0.00
2017-09-04T18:37:12.322Z,0.00
2017-09-04T18:38:12.305Z,0.00
2017-09-04T18:39:12.289Z,0.00
2017-09-04T18:40:12.272Z,0.00
2017-09-04T18:41:12.254Z,0.00
2017-09-04T18:42:12.235Z,0.00
2017-09-04T18:43:12.218Z,0.00
2017-09-04T18:44:12.201Z,0.00